TimeCDT,TemperatureF,Dew PointF,Humidity,Sea Level PressureIn,VisibilityMPH,Wind Direction,Wind SpeedMPH,Gust SpeedMPH,PrecipitationIn,Events,Conditions,WindDirDegrees,DateUTC
12:15 AM,35.6,21.2,56,30.21,10.0,NNW,4.6,-,N/A,,Clear,340,2013-04-02 05:15:00
12:35 AM,35.6,21.2,56,30.22,10.0,NNW,3.5,-,N/A,,Clear,340,2013-04-02 05:35:00
12:55 AM,35.6,21.2,56,30.22,10.0,North,4.6,-,N/A,,Clear,350,2013-04-02 05:55:00
1:15 AM,35.6,21.2,56,30.22,10.0,North,6.9,-,N/A,,Clear,350,2013-04-02 06:15:00
1:35 AM,35.6,21.2,56,30.23,10.0,North,5.8,-,N/A,,Clear,350,2013-04-02 06:35:00
1:55 AM,33.8,21.2,60,30.23,10.0,NNW,5.8,-,N/A,,Clear,340,2013-04-02 06:55:00
2:15 AM,33.8,21.2,60,30.24,10.0,NNW,4.6,-,N/A,,Clear,340,2013-04-02 07:15:00
2:35 AM,33.8,21.2,60,30.24,10.0,North,5.8,-,N/A,,Clear,350,2013-04-02 07:35:00
2:55 AM,33.8,21.2,60,30.24,10.0,North,4.6,-,N/A,,Clear,350,2013-04-02 07:55:00
3:15 AM,32.0,21.2,64,30.25,10.0,NNW,3.5,-,N/A,,Clear,330,2013-04-02 08:15:00
3:35 AM,32.0,21.2,64,30.26,10.0,NNW,3.5,-,N/A,,Clear,330,2013-04-02 08:35:00
3:55 AM,32.0,21.2,64,30.26,10.0,Calm,Calm,-,N/A,,Clear,0,2013-04-02 08:55:00
4:15 AM,30.2,21.2,69,30.26,10.0,North,4.6,-,N/A,,Clear,360,2013-04-02 09:15:00
4:35 AM,30.2,21.2,69,30.27,10.0,North,4.6,-,N/A,,Clear,10,2013-04-02 09:35:00
4:55 AM,30.2,21.2,69,30.27,10.0,North,4.6,-,N/A,,Clear,10,2013-04-02 09:55:00
5:15 AM,30.2,21.2,69,30.27,10.0,Calm,Calm,-,N/A,,Clear,0,2013-04-02 10:15:00
5:35 AM,28.4,23.0,80,30.27,10.0,Calm,Calm,-,N/A,,Clear,0,2013-04-02 10:35:00
5:55 AM,28.4,23.0,80,30.28,10.0,Calm,Calm,-,N/A,,Clear,0,2013-04-02 10:55:00
6:15 AM,28.4,21.2,74,30.29,10.0,Calm,Calm,-,N/A,,Clear,0,2013-04-02 11:15:00
6:35 AM,26.6,21.2,80,30.30,10.0,Calm,Calm,-,N/A,,Clear,0,2013-04-02 11:35:00
6:55 AM,26.6,23.0,86,30.31,10.0,Calm,Calm,-,N/A,,Clear,0,2013-04-02 11:55:00
7:15 AM,26.6,23.0,86,30.31,10.0,Calm,Calm,-,N/A,,Clear,0,2013-04-02 12:15:00
7:35 AM,30.2,23.0,75,30.33,10.0,Calm,Calm,-,N/A,,Clear,0,2013-04-02 12:35:00
7:55 AM,32.0,23.0,69,30.33,10.0,North,6.9,-,N/A,,Clear,350,2013-04-02 12:55:00
8:15 AM,33.8,23.0,65,30.33,10.0,North,8.1,-,N/A,,Clear,350,2013-04-02 13:15:00
8:35 AM,33.8,23.0,65,30.34,10.0,North,8.1,-,N/A,,Clear,360,2013-04-02 13:35:00
8:55 AM,33.8,23.0,65,30.34,10.0,North,5.8,-,N/A,,Clear,350,2013-04-02 13:55:00
9:35 AM,35.6,21.2,56,30.33,10.0,North,6.9,-,N/A,,Clear,360,2013-04-02 14:35:00
9:55 AM,35.6,21.2,56,30.33,10.0,North,5.8,-,N/A,,Clear,10,2013-04-02 14:55:00
10:15 AM,37.4,19.4,48,30.33,10.0,West,3.5,-,N/A,,Clear,280,2013-04-02 15:15:00
10:35 AM,37.4,17.6,45,30.34,10.0,Calm,Calm,-,N/A,,Clear,0,2013-04-02 15:35:00
10:55 AM,39.2,17.6,42,30.34,10.0,NNE,4.6,-,N/A,,Clear,30,2013-04-02 15:55:00
11:15 AM,39.2,15.8,39,30.34,10.0,NNW,5.8,-,N/A,,Clear,340,2013-04-02 16:15:00
11:35 AM,39.2,17.6,42,30.33,10.0,NNW,6.9,-,N/A,,Clear,340,2013-04-02 16:35:00
11:55 AM,41.0,15.8,36,30.32,10.0,NNW,6.9,-,N/A,,Clear,330,2013-04-02 16:55:00
12:15 PM,41.0,15.8,36,30.32,10.0,North,3.5,-,N/A,,Clear,350,2013-04-02 17:15:00
12:35 PM,42.8,15.8,34,30.31,10.0,NNE,6.9,-,N/A,,Clear,30,2013-04-02 17:35:00
12:55 PM,42.8,15.8,34,30.31,10.0,NNW,6.9,-,N/A,,Clear,330,2013-04-02 17:55:00
1:15 PM,42.8,15.8,34,30.30,10.0,NNW,5.8,-,N/A,,Clear,340,2013-04-02 18:15:00
1:35 PM,44.6,14.0,29,30.30,10.0,NNW,3.5,-,N/A,,Clear,340,2013-04-02 18:35:00
1:55 PM,44.6,15.8,31,30.29,10.0,North,5.8,-,N/A,,Clear,360,2013-04-02 18:55:00
2:15 PM,44.6,12.2,27,30.29,10.0,WNW,5.8,-,N/A,,Clear,300,2013-04-02 19:15:00
2:35 PM,44.6,10.4,25,30.29,10.0,North,5.8,-,N/A,,Clear,360,2013-04-02 19:35:00
2:55 PM,44.6,12.2,27,30.28,10.0,NNE,3.5,-,N/A,,Clear,30,2013-04-02 19:55:00
3:15 PM,46.4,12.2,25,30.28,10.0,NNE,6.9,-,N/A,,Clear,30,2013-04-02 20:15:00
3:35 PM,44.6,12.2,27,30.27,10.0,Calm,Calm,-,N/A,,Clear,0,2013-04-02 20:35:00
3:55 PM,44.6,12.2,27,30.27,10.0,Calm,Calm,-,N/A,,Clear,0,2013-04-02 20:55:00
4:15 PM,46.4,12.2,25,30.26,10.0,WNW,4.6,-,N/A,,Clear,290,2013-04-02 21:15:00
4:35 PM,46.4,14.0,27,30.26,10.0,Calm,Calm,-,N/A,,Clear,0,2013-04-02 21:35:00
4:55 PM,46.4,12.2,25,30.27,10.0,West,5.8,-,N/A,,Clear,270,2013-04-02 21:55:00
5:15 PM,46.4,14.0,27,30.26,10.0,North,5.8,-,N/A,,Clear,350,2013-04-02 22:15:00
5:35 PM,46.4,12.2,25,30.26,10.0,NW,4.6,-,N/A,,Clear,310,2013-04-02 22:35:00
5:55 PM,46.4,10.4,23,30.27,10.0,North,6.9,-,N/A,,Clear,360,2013-04-02 22:55:00
6:15 PM,44.6,12.2,27,30.27,10.0,North,6.9,-,N/A,,Clear,350,2013-04-02 23:15:00
6:35 PM,44.6,14.0,29,30.27,10.0,North,8.1,-,N/A,,Clear,360,2013-04-02 23:35:00
6:55 PM,42.8,17.6,36,30.27,10.0,North,4.6,-,N/A,,Clear,350,2013-04-02 23:55:00
7:15 PM,42.8,17.6,36,30.27,10.0,North,3.5,-,N/A,,Clear,360,2013-04-03 00:15:00
7:35 PM,42.8,15.8,34,30.28,10.0,Calm,Calm,-,N/A,,Clear,0,2013-04-03 00:35:00
7:55 PM,41.0,17.6,39,30.28,10.0,Calm,Calm,-,N/A,,Clear,0,2013-04-03 00:55:00
8:15 PM,39.2,17.6,42,30.28,10.0,Calm,Calm,-,N/A,,Clear,0,2013-04-03 01:15:00
8:35 PM,39.2,19.4,45,30.29,10.0,Calm,Calm,-,N/A,,Clear,0,2013-04-03 01:35:00
8:55 PM,37.4,21.2,52,30.29,10.0,Calm,Calm,-,N/A,,Clear,0,2013-04-03 01:55:00
9:15 PM,37.4,23.0,56,30.30,10.0,Calm,Calm,-,N/A,,Clear,0,2013-04-03 02:15:00
9:35 PM,37.4,21.2,52,30.30,10.0,Calm,Calm,-,N/A,,Clear,0,2013-04-03 02:35:00
9:55 PM,39.2,21.2,49,30.31,10.0,Calm,Calm,-,N/A,,Clear,0,2013-04-03 02:55:00
10:15 PM,37.4,21.2,52,30.31,10.0,Calm,Calm,-,N/A,,Clear,0,2013-04-03 03:15:00
10:35 PM,37.4,23.0,56,30.31,10.0,Calm,Calm,-,N/A,,Clear,0,2013-04-03 03:35:00
10:55 PM,35.6,24.8,65,30.31,10.0,Calm,Calm,-,N/A,,Clear,0,2013-04-03 03:55:00
11:15 PM,35.6,26.6,70,30.30,10.0,Calm,Calm,-,N/A,,Clear,0,2013-04-03 04:15:00
11:35 PM,35.6,24.8,65,30.30,10.0,Calm,Calm,-,N/A,,Clear,0,2013-04-03 04:35:00
11:55 PM,35.6,21.2,56,30.30,10.0,Calm,Calm,-,N/A,,Clear,0,2013-04-03 04:55:00